CSAPA EDKB-EDKB
Flight info
| Callsign | CSAPA |
|---|---|
| Flight time | 0h 17m |
| Altitude | 1150 |
| Route | VFR CIRCUITS |
| Aircraft | C152/L-V/N |
Departure
| Time | 2026-04-27 18:13 |
|---|---|
| Airport | Bonn-Hangelar Airfield (EDKB) |
Arrival
| Time | 2026-04-27 18:31 |
|---|---|
| Airport | Bonn-Hangelar Airfield (EDKB) |
| Time | Latitude | Longitude | Altitude | Speed | Heading |
|---|---|---|---|---|---|
| 2026-04-27 18:01 | 50.76699 | 7.16389 | 200 ft | 0 kts | 112° |
| 2026-04-27 18:05 | 50.76699 | 7.16390 | 200 ft | 0 kts | 112° |
| 2026-04-27 18:08 | 50.76698 | 7.16396 | 200 ft | 1 kts | 95° |
| 2026-04-27 18:09 | 50.76709 | 7.16418 | 200 ft | 5 kts | 32° |
| 2026-04-27 18:09 | 50.76735 | 7.16448 | 200 ft | 5 kts | 37° |
| 2026-04-27 18:09 | 50.76775 | 7.16467 | 200 ft | 7 kts | 343° |
| 2026-04-27 18:09 | 50.76790 | 7.16418 | 200 ft | 7 kts | 286° |
| 2026-04-27 18:10 | 50.76810 | 7.16316 | 200 ft | 12 kts | 287° |
| 2026-04-27 18:10 | 50.76829 | 7.16231 | 200 ft | 7 kts | 291° |
| 2026-04-27 18:10 | 50.76851 | 7.16137 | 200 ft | 11 kts | 290° |
| 2026-04-27 18:10 | 50.76880 | 7.16012 | 200 ft | 13 kts | 289° |
| 2026-04-27 18:11 | 50.76910 | 7.15861 | 200 ft | 14 kts | 285° |
| 2026-04-27 18:11 | 50.76923 | 7.15803 | 200 ft | 8 kts | 290° |
| 2026-04-27 18:11 | 50.76946 | 7.15718 | 200 ft | 2 kts | 331° |
| 2026-04-27 18:11 | 50.76965 | 7.15724 | 200 ft | 2 kts | 18° |
| 2026-04-27 18:12 | 50.76973 | 7.15728 | 200 ft | 2 kts | 19° |
| 2026-04-27 18:12 | 50.77008 | 7.15748 | 200 ft | 10 kts | 20° |
| 2026-04-27 18:12 | 50.77034 | 7.15791 | 200 ft | 6 kts | 105° |
| 2026-04-27 18:12 | 50.76940 | 7.16182 | 201 ft | 67 kts | 110° |
| 2026-04-27 18:13 | 50.76751 | 7.16982 | 349 ft | 79 kts | 114° |
| 2026-04-27 18:13 | 50.76545 | 7.17800 | 530 ft | 88 kts | 115° |
| 2026-04-27 18:13 | 50.76315 | 7.18755 | 687 ft | 96 kts | 112° |
| 2026-04-27 18:13 | 50.76040 | 7.19688 | 857 ft | 94 kts | 131° |
| 2026-04-27 18:14 | 50.75466 | 7.20064 | 900 ft | 94 kts | 194° |
| 2026-04-27 18:14 | 50.74868 | 7.19760 | 980 ft | 91 kts | 204° |
| 2026-04-27 18:14 | 50.74289 | 7.19336 | 1024 ft | 90 kts | 221° |
| 2026-04-27 18:14 | 50.73917 | 7.18552 | 1039 ft | 90 kts | 242° |
| 2026-04-27 18:15 | 50.73629 | 7.17709 | 1118 ft | 86 kts | 244° |
| 2026-04-27 18:15 | 50.73392 | 7.16825 | 1117 ft | 89 kts | 254° |
| 2026-04-27 18:15 | 50.73340 | 7.15856 | 1136 ft | 89 kts | 275° |
| 2026-04-27 18:15 | 50.73496 | 7.14918 | 1143 ft | 90 kts | 292° |
| 2026-04-27 18:16 | 50.73804 | 7.14056 | 1162 ft | 88 kts | 297° |
| 2026-04-27 18:16 | 50.74107 | 7.13211 | 1169 ft | 90 kts | 293° |
| 2026-04-27 18:16 | 50.74390 | 7.12329 | 1175 ft | 90 kts | 297° |
| 2026-04-27 18:16 | 50.74818 | 7.11600 | 1133 ft | 94 kts | 321° |
| 2026-04-27 18:17 | 50.75451 | 7.11323 | 1083 ft | 97 kts | 354° |
| 2026-04-27 18:17 | 50.76114 | 7.11391 | 1052 ft | 95 kts | 360° |
| 2026-04-27 18:17 | 50.76733 | 7.11725 | 989 ft | 96 kts | 32° |
| 2026-04-27 18:17 | 50.77200 | 7.12495 | 828 ft | 101 kts | 56° |
| 2026-04-27 18:18 | 50.77450 | 7.13502 | 655 ft | 95 kts | 71° |
| 2026-04-27 18:18 | 50.77383 | 7.14437 | 479 ft | 85 kts | 111° |
| 2026-04-27 18:18 | 50.77173 | 7.15289 | 344 ft | 79 kts | 117° |
| 2026-04-27 18:18 | 50.76978 | 7.16044 | 204 ft | 69 kts | 114° |
| 2026-04-27 18:19 | 50.76799 | 7.16795 | 245 ft | 83 kts | 111° |
| 2026-04-27 18:19 | 50.76602 | 7.17659 | 433 ft | 87 kts | 114° |
| 2026-04-27 18:19 | 50.76366 | 7.18634 | 567 ft | 98 kts | 114° |
| 2026-04-27 18:19 | 50.76110 | 7.19634 | 753 ft | 98 kts | 115° |
| 2026-04-27 18:20 | 50.75717 | 7.20438 | 914 ft | 90 kts | 154° |
| 2026-04-27 18:20 | 50.75122 | 7.20573 | 994 ft | 88 kts | 200° |
| 2026-04-27 18:20 | 50.74538 | 7.20254 | 1065 ft | 89 kts | 203° |
| 2026-04-27 18:20 | 50.73985 | 7.19838 | 1135 ft | 88 kts | 223° |
| 2026-04-27 18:21 | 50.73640 | 7.19030 | 1144 ft | 91 kts | 245° |
| 2026-04-27 18:21 | 50.73355 | 7.18122 | 1124 ft | 93 kts | 245° |
| 2026-04-27 18:21 | 50.73076 | 7.17211 | 1111 ft | 90 kts | 247° |
| 2026-04-27 18:21 | 50.72910 | 7.16248 | 1052 ft | 93 kts | 265° |
| 2026-04-27 18:22 | 50.73036 | 7.15241 | 994 ft | 96 kts | 295° |
| 2026-04-27 18:22 | 50.73354 | 7.14352 | 1016 ft | 91 kts | 298° |
| 2026-04-27 18:22 | 50.73703 | 7.13515 | 1014 ft | 91 kts | 302° |
| 2026-04-27 18:22 | 50.74069 | 7.12703 | 1011 ft | 92 kts | 301° |
| 2026-04-27 18:23 | 50.74425 | 7.11861 | 1008 ft | 91 kts | 301° |
| 2026-04-27 18:23 | 50.74951 | 7.11340 | 943 ft | 94 kts | 345° |
| 2026-04-27 18:23 | 50.75609 | 7.11313 | 903 ft | 94 kts | 355° |
| 2026-04-27 18:23 | 50.76242 | 7.11413 | 910 ft | 93 kts | 12° |
| 2026-04-27 18:24 | 50.76820 | 7.11852 | 848 ft | 93 kts | 24° |
| 2026-04-27 18:24 | 50.77284 | 7.12480 | 786 ft | 87 kts | 65° |
| 2026-04-27 18:24 | 50.77415 | 7.13391 | 618 ft | 81 kts | 88° |
| 2026-04-27 18:24 | 50.77387 | 7.14290 | 467 ft | 82 kts | 102° |
| 2026-04-27 18:25 | 50.77223 | 7.15119 | 350 ft | 76 kts | 116° |
| 2026-04-27 18:25 | 50.77019 | 7.15864 | 208 ft | 70 kts | 115° |
| 2026-04-27 18:25 | 50.76843 | 7.16584 | 220 ft | 82 kts | 113° |
| 2026-04-27 18:25 | 50.76621 | 7.17426 | 430 ft | 82 kts | 117° |
| 2026-04-27 18:26 | 50.76398 | 7.18326 | 548 ft | 97 kts | 113° |
| 2026-04-27 18:26 | 50.76148 | 7.19272 | 754 ft | 93 kts | 122° |
| 2026-04-27 18:26 | 50.75647 | 7.19889 | 878 ft | 93 kts | 171° |
| 2026-04-27 18:26 | 50.75037 | 7.19811 | 1018 ft | 86 kts | 212° |
| 2026-04-27 18:27 | 50.74525 | 7.19354 | 1115 ft | 85 kts | 210° |
| 2026-04-27 18:27 | 50.74027 | 7.18839 | 1147 ft | 88 kts | 231° |
| 2026-04-27 18:27 | 50.73740 | 7.17998 | 1193 ft | 84 kts | 245° |
| 2026-04-27 18:27 | 50.73474 | 7.17167 | 1189 ft | 87 kts | 244° |
| 2026-04-27 18:28 | 50.73186 | 7.16328 | 1203 ft | 86 kts | 242° |
| 2026-04-27 18:28 | 50.72941 | 7.15489 | 1151 ft | 86 kts | 259° |
| 2026-04-27 18:28 | 50.73154 | 7.14664 | 1068 ft | 86 kts | 323° |
| 2026-04-27 18:28 | 50.73755 | 7.14384 | 937 ft | 89 kts | 344° |
| 2026-04-27 18:29 | 50.74313 | 7.14091 | 901 ft | 83 kts | 330° |
| 2026-04-27 18:29 | 50.74846 | 7.13676 | 814 ft | 86 kts | 327° |
| 2026-04-27 18:29 | 50.75350 | 7.13265 | 859 ft | 71 kts | 329° |
| 2026-04-27 18:29 | 50.75836 | 7.13025 | 800 ft | 80 kts | 350° |
| 2026-04-27 18:30 | 50.76391 | 7.13227 | 750 ft | 85 kts | 19° |
| 2026-04-27 18:30 | 50.76897 | 7.13678 | 697 ft | 82 kts | 37° |
| 2026-04-27 18:30 | 50.77177 | 7.14425 | 492 ft | 80 kts | 73° |
| 2026-04-27 18:30 | 50.77167 | 7.15284 | 309 ft | 77 kts | 108° |
| 2026-04-27 18:31 | 50.76985 | 7.16012 | 201 ft | 63 kts | 115° |
| 2026-04-27 18:31 | 50.76878 | 7.16434 | 200 ft | 24 kts | 101° |
| 2026-04-27 18:31 | 50.76827 | 7.16654 | 200 ft | 19 kts | 116° |
| 2026-04-27 18:31 | 50.76770 | 7.16776 | 200 ft | 7 kts | 195° |
| 2026-04-27 18:32 | 50.76744 | 7.16763 | 200 ft | 2 kts | 200° |
| 2026-04-27 18:32 | 50.76736 | 7.16759 | 200 ft | 3 kts | 200° |
| 2026-04-27 18:32 | 50.76708 | 7.16743 | 200 ft | 5 kts | 202° |
| 2026-04-27 18:32 | 50.76690 | 7.16698 | 200 ft | 6 kts | 270° |
| 2026-04-27 18:33 | 50.76700 | 7.16642 | 200 ft | 5 kts | 290° |
| 2026-04-27 18:33 | 50.76710 | 7.16597 | 200 ft | 4 kts | 290° |
| 2026-04-27 18:33 | 50.76721 | 7.16549 | 200 ft | 7 kts | 290° |
| 2026-04-27 18:33 | 50.76744 | 7.16446 | 200 ft | 12 kts | 289° |
| 2026-04-27 18:34 | 50.76765 | 7.16350 | 200 ft | 5 kts | 264° |
| 2026-04-27 18:34 | 50.76738 | 7.16328 | 200 ft | 8 kts | 200° |
| 2026-04-27 18:34 | 50.76712 | 7.16331 | 200 ft | 0 kts | 110° |